Birdsville, Australia
Current Conditions -  °F | °C
As of 4:00 AM on Tuesday 23 Dec 2014 (Local Time) from YOLD Reporting Station
Scattered Clouds Scattered Clouds  
Wind Chill: 66°   Ceiling: Unl
Heat Index: 66°   Visibility: 6mi
Dew Point: 57°   Wind: 16mph
Humidity: 73%   Direction: 220°SW
Pressure: 29.83"   Gusts: NA
Location:  25.9°S, 139.35°E
Report Text: YOLD 221800Z AUTO 22014KT 9999 // SCT067 19/14 Q1010
Loading
Personal Weather Stations






























Interactive Weather Map New forecast layout! Learn more

10-Day Weather Forecast

Advertisements
Track Severe Weather on mobile